Eriline, Kentucky
Current Conditions -  °F | °C
As of 8:15 AM on Sunday 23 Nov 2014 (Local Time) from KI35 Reporting Station
Overcast Overcast  
Wind Chill: 54°   Ceiling: 6000
Heat Index: 54°   Visibility: 10mi
Dew Point: 37°   Wind: 14mph
Humidity: 54%   Direction: 100°E
Pressure: 30.04"   Gusts: 24mph
Location:  37.19°N, 83.59°W
Report Text: KI35 231315Z AUTO 10012G21KT 060V130 10SM OVC060 12/03 A3004 RMK AO1
Loading
Personal Weather Stations






























Interactive Weather Map New forecast layout! Learn more

10-Day Weather Forecast

Advertisements
Track Severe Weather on mobile